Time;durP1;ratioP1;P1;durP2;ratioP2;P2;SDS_P1;SDS_P2;PMS_P1;PMS_P2;Temp;Humidity;BMP_temperature;BMP_pressure;BME280_temperature;BME280_humidity;BME280_pressure;Samples;Min_cycle;Max_cycle;Signal;HPM_P1;HPM_P2
2022/05/11 00:00:22;;;;;;;8.77;7.45;;;;;;;17.15;59.66;96427.59;5106428;28;20051;-79
2022/05/11 00:02:49;;;;;;;7.15;6.45;;;;;;;17.17;59.86;96425.28;5108035;28;20055;-78
2022/05/11 00:05:16;;;;;;;9.93;7.63;;;;;;;17.16;60.23;96423.69;5106566;28;20055;-79
2022/05/11 00:07:43;;;;;;;8.52;7.10;;;;;;;17.09;59.09;96423.53;5107760;28;20093;-78
2022/05/11 00:10:12;;;;;;;9.75;7.38;;;;;;;17.06;59.09;96429.75;5106735;28;20058;-78
2022/05/11 00:12:40;;;;;;;8.32;7.03;;;;;;;17.06;59.84;96419.53;5107445;28;20048;-78
2022/05/11 00:15:08;;;;;;;9.55;7.15;;;;;;;17.06;59.93;96418.72;5106620;28;20526;-78
2022/05/11 00:17:34;;;;;;;9.77;6.88;;;;;;;17.03;59.87;96422.22;5106669;28;20043;-78
2022/05/11 00:20:01;;;;;;;9.98;6.30;;;;;;;16.97;59.29;96420.91;5107633;28;20051;-78
2022/05/11 00:22:27;;;;;;;6.97;6.28;;;;;;;16.95;59.37;96424.78;5106339;28;20094;-79
2022/05/11 00:24:55;;;;;;;9.18;7.10;;;;;;;16.92;59.92;96417.28;5107684;28;20050;-79
2022/05/11 00:27:21;;;;;;;7.95;6.10;;;;;;;16.89;58.96;96422.69;5105956;28;20075;-79
2022/05/11 00:29:48;;;;;;;7.60;6.32;;;;;;;16.87;59.20;96423.03;5107505;28;20051;-78
2022/05/11 00:32:14;;;;;;;8.48;6.72;;;;;;;16.88;59.05;96413.63;5106357;28;20050;-78
2022/05/11 00:34:41;;;;;;;7.18;6.15;;;;;;;16.92;59.80;96417.28;5107297;28;20055;-78
2022/05/11 00:37:07;;;;;;;7.47;6.20;;;;;;;16.96;60.04;96422.84;5106408;28;20047;-78
2022/05/11 00:39:34;;;;;;;15.30;5.85;;;;;;;16.97;59.73;96416.19;5106704;28;20062;-78
2022/05/11 00:42:03;;;;;;;9.98;6.47;;;;;;;16.93;59.20;96398.81;5107083;28;20047;-77
2022/05/11 00:44:30;;;;;;;7.22;5.95;;;;;;;16.86;58.72;96410.44;5106077;28;20070;-78
2022/05/11 00:47:00;;;;;;;7.43;5.82;;;;;;;16.83;58.68;96416.66;5106249;28;20048;-78
2022/05/11 00:49:36;;;;;;;7.78;5.90;;;;;;;16.87;59.25;96411.25;5105062;28;20044;-79
2022/05/11 00:52:08;;;;;;;6.75;5.80;;;;;;;16.85;59.35;96408.03;5106519;28;20047;-78
2022/05/11 00:54:39;;;;;;;7.82;5.63;;;;;;;16.83;58.77;96408.41;5106300;28;20088;-78
2022/05/11 00:57:13;;;;;;;6.72;5.82;;;;;;;16.79;59.23;96399.25;5106383;28;20052;-78
2022/05/11 00:59:43;;;;;;;6.50;5.20;;;;;;;16.78;59.50;96403.19;5106285;28;20047;-78
2022/05/11 01:02:10;;;;;;;7.68;5.70;;;;;;;16.80;58.93;96395.34;5105489;28;20047;-79
2022/05/11 01:04:39;;;;;;;10.50;5.93;;;;;;;16.83;58.83;96400.16;5106787;28;20056;-79
2022/05/11 01:07:09;;;;;;;6.57;5.68;;;;;;;16.84;59.49;96393.50;5105497;28;20765;-79
2022/05/11 01:09:37;;;;;;;7.32;5.93;;;;;;;16.80;59.97;96394.56;5106558;28;20115;-80
2022/05/11 01:12:10;;;;;;;6.38;5.78;;;;;;;16.72;59.38;96395.56;5105336;28;20048;-79
2022/05/11 01:14:39;;;;;;;8.27;5.75;;;;;;;16.65;59.67;96388.72;5105363;28;20059;-81
2022/05/11 01:17:07;;;;;;;7.78;5.75;;;;;;;16.63;59.83;96391.00;5105310;28;20052;-80
2022/05/11 01:19:36;;;;;;;8.23;5.78;;;;;;;16.62;60.30;96385.88;5105880;28;20047;-78
2022/05/11 01:22:09;;;;;;;6.82;5.88;;;;;;;16.60;60.46;96385.41;5105991;28;20051;-78
2022/05/11 01:24:40;;;;;;;5.85;5.00;;;;;;;16.53;60.02;96386.03;5105430;28;20055;-78
2022/05/11 01:27:26;;;;;;;8.38;5.32;;;;;;;16.50;59.88;96391.47;5106180;28;20071;-77
2022/05/11 01:29:53;;;;;;;6.00;5.28;;;;;;;16.50;59.86;96386.78;5105156;28;20529;-78
2022/05/11 01:32:20;;;;;;;12.88;5.97;;;;;;;16.43;59.84;96387.38;5105757;28;20068;-78
2022/05/11 01:34:47;;;;;;;7.53;5.78;;;;;;;16.46;60.21;96390.56;5105676;28;20055;-78
2022/05/11 01:37:13;;;;;;;7.25;5.95;;;;;;;16.47;60.29;96392.97;5105464;28;20058;-78
2022/05/11 01:39:43;;;;;;;6.35;4.93;;;;;;;16.48;60.81;96388.25;5106053;28;20051;-78
2022/05/11 01:42:12;;;;;;;7.78;5.57;;;;;;;16.49;60.86;96393.41;5104811;28;20481;-77
2022/05/11 01:44:38;;;;;;;6.88;5.60;;;;;;;16.48;61.41;96389.06;5106050;28;20505;-78
2022/05/11 01:47:05;;;;;;;5.85;5.15;;;;;;;16.48;61.44;96385.50;5104486;28;20054;-78
2022/05/11 01:49:31;;;;;;;5.97;5.20;;;;;;;16.48;60.16;96393.75;5106253;28;20050;-77
2022/05/11 01:51:58;;;;;;;6.55;5.53;;;;;;;16.44;60.12;96397.22;5104973;28;20052;-78
2022/05/11 01:54:26;;;;;;;8.05;4.88;;;;;;;16.40;60.46;96396.34;5105326;28;20108;-78
2022/05/11 01:56:54;;;;;;;7.60;4.78;;;;;;;16.30;59.89;96390.56;5105217;28;20043;-79
2022/05/11 01:59:20;;;;;;;7.25;5.28;;;;;;;16.23;60.16;96388.44;5105044;28;20746;-80
2022/05/11 02:01:47;;;;;;;6.15;4.95;;;;;;;16.21;60.37;96379.75;5105321;28;20069;-78
2022/05/11 02:09:37;;;;;;;7.18;5.55;;;;;;;16.08;61.15;96381.00;5104436;28;20493;-78
2022/05/11 02:12:06;;;;;;;7.82;5.60;;;;;;;16.05;61.55;96376.19;5105230;28;20047;-78
2022/05/11 02:14:33;;;;;;;6.25;5.03;;;;;;;16.01;61.48;96386.28;5105025;28;20043;-79
2022/05/11 02:16:59;;;;;;;6.50;5.22;;;;;;;16.00;61.87;96373.69;5105380;28;20044;-79
2022/05/11 02:19:27;;;;;;;7.20;4.82;;;;;;;15.97;61.94;96374.41;5104984;28;20515;-80
2022/05/11 02:21:53;;;;;;;5.55;4.95;;;;;;;15.97;61.60;96372.44;5104895;28;20062;-79
2022/05/11 02:24:20;;;;;;;7.82;5.85;;;;;;;15.96;61.77;96381.84;5105072;28;20058;-79
2022/05/11 02:26:46;;;;;;;7.82;5.32;;;;;;;15.95;61.61;96379.47;5107578;28;20052;-79
2022/05/11 02:29:14;;;;;;;8.38;5.55;;;;;;;15.93;62.00;96384.50;5109542;28;20040;-79
2022/05/11 02:31:41;;;;;;;8.57;5.53;;;;;;;15.91;61.89;96382.09;5108848;28;20048;-80
2022/05/11 02:35:12;;;;;;;12.77;5.57;;;;;;;15.93;62.20;96387.25;5109331;28;20062;-80
2022/05/11 02:36:54;;;;;;;9.43;5.32;;;;;;;15.88;62.27;96383.63;5108716;28;20516;-78
2022/05/11 02:39:21;;;;;;;9.75;5.30;;;;;;;15.81;62.00;96380.66;5108637;28;20048;-79
2022/05/11 02:41:47;;;;;;;9.27;5.40;;;;;;;15.83;62.00;96380.31;5109266;28;20062;-79
2022/05/11 02:44:15;;;;;;;15.48;5.93;;;;;;;15.80;62.01;96373.56;5108637;28;20063;-79
2022/05/11 02:46:41;;;;;;;8.63;5.68;;;;;;;15.82;62.15;96374.03;5109564;28;20070;-78
2022/05/11 02:49:08;;;;;;;8.25;5.55;;;;;;;15.75;62.80;96378.53;5108200;28;20054;-78
2022/05/11 02:51:34;;;;;;;12.60;5.30;;;;;;;15.76;62.71;96380.13;5109372;28;20048;-79
2022/05/11 02:54:01;;;;;;;10.02;5.30;;;;;;;15.77;62.88;96376.25;5108551;28;20442;-78
2022/05/11 02:56:27;;;;;;;7.55;5.07;;;;;;;15.76;63.49;96372.66;5109158;28;20047;-78
2022/05/11 02:58:54;;;;;;;8.32;5.05;;;;;;;15.74;63.35;96377.72;5108407;28;20054;-79
2022/05/11 03:01:22;;;;;;;8.18;5.30;;;;;;;15.73;62.90;96378.88;5108478;28;20052;-79
2022/05/11 03:03:48;;;;;;;7.07;5.13;;;;;;;15.70;63.25;96382.31;5108991;28;20654;-78
2022/05/11 03:06:15;;;;;;;9.57;5.82;;;;;;;15.72;63.39;96380.03;5108118;28;20051;-79
2022/05/11 03:08:43;;;;;;;7.85;5.13;;;;;;;15.67;63.41;96377.53;5109316;28;20043;-79
2022/05/11 03:11:10;;;;;;;8.52;5.53;;;;;;;15.62;63.40;96384.03;5107825;28;20080;-78
2022/05/11 03:13:36;;;;;;;10.65;5.43;;;;;;;15.61;63.61;96381.66;5109018;28;20063;-79
2022/05/11 03:16:03;;;;;;;6.22;5.03;;;;;;;15.62;63.73;96383.25;5107605;28;20058;-79
2022/05/11 03:18:31;;;;;;;8.98;5.93;;;;;;;15.60;64.21;96383.59;5109553;28;20048;-79
2022/05/11 03:20:59;;;;;;;8.20;5.55;;;;;;;15.56;63.99;96382.72;5107632;28;20044;-79
2022/05/11 03:23:25;;;;;;;10.63;5.30;;;;;;;15.51;64.03;96379.41;5108460;28;20050;-78
2022/05/11 03:25:52;;;;;;;13.45;5.53;;;;;;;15.46;63.60;96387.91;5108424;28;20803;-79
2022/05/11 03:28:18;;;;;;;11.55;5.72;;;;;;;15.43;63.67;96385.84;5108244;28;20051;-77
2022/05/11 03:30:45;;;;;;;16.80;6.30;;;;;;;15.39;63.58;96389.25;5108271;28;20506;-79
2022/05/11 03:35:57;;;;;;;8.43;4.93;;;;;;;15.31;63.91;96392.16;5108535;28;20054;-77
2022/05/11 03:38:24;;;;;;;10.40;5.45;;;;;;;15.28;64.02;96381.88;5106795;28;20047;-80
2022/05/11 03:40:50;;;;;;;9.77;5.20;;;;;;;15.27;64.24;96391.25;5108575;28;20048;-78
2022/05/11 03:43:17;;;;;;;7.68;5.38;;;;;;;15.24;64.07;96398.22;5107067;28;20056;-79
2022/05/11 03:45:45;;;;;;;12.80;5.60;;;;;;;15.24;64.45;96397.41;5106084;28;20079;-77
2022/05/11 03:48:12;;;;;;;10.48;5.35;;;;;;;15.17;64.33;96389.78;5107903;28;20058;-78
2022/05/11 03:50:39;;;;;;;7.32;4.97;;;;;;;15.12;64.23;96390.03;5107681;28;20047;-78
2022/05/11 03:53:07;;;;;;;9.88;5.82;;;;;;;15.19;65.04;96395.75;5107563;28;20051;-79
2022/05/11 03:55:33;;;;;;;10.63;5.65;;;;;;;15.19;64.69;96390.25;5107144;28;20040;-78
2022/05/11 03:58:01;;;;;;;8.10;5.50;;;;;;;15.19;64.36;96395.75;5108398;28;20047;-78
2022/05/11 04:00:27;;;;;;;11.70;5.80;;;;;;;15.22;64.28;96389.53;5106800;28;20452;-78
2022/05/11 04:02:55;;;;;;;8.23;5.38;;;;;;;15.24;64.23;96384.50;5108297;28;20052;-78
2022/05/11 04:05:23;;;;;;;9.48;5.55;;;;;;;15.30;64.33;96380.41;5106503;28;20051;-76
2022/05/11 04:07:49;;;;;;;7.50;4.90;;;;;;;15.35;64.64;96385.63;5107777;28;20054;-77
2022/05/11 04:10:19;;;;;;;8.50;4.95;;;;;;;15.40;65.03;96390.09;5106851;28;20043;-78
2022/05/11 04:12:45;;;;;;;11.68;5.82;;;;;;;15.44;65.17;96388.22;5107228;28;20094;-78
2022/05/11 04:15:12;;;;;;;10.85;5.47;;;;;;;15.48;65.76;96388.31;5106583;28;20044;-77
2022/05/11 04:17:39;;;;;;;7.20;5.13;;;;;;;15.51;66.34;96391.19;5107175;28;20055;-77
2022/05/11 04:20:08;;;;;;;6.88;5.03;;;;;;;15.55;66.55;96385.78;5107098;28;20051;-77
2022/05/11 04:22:34;;;;;;;6.40;4.90;;;;;;;15.57;66.03;96389.00;5106504;28;20043;-78
2022/05/11 04:25:01;;;;;;;6.22;4.90;;;;;;;15.60;66.03;96391.03;5107746;28;20502;-77
2022/05/11 04:27:30;;;;;;;7.82;5.00;;;;;;;15.60;66.13;96388.28;5106737;28;20047;-77
2022/05/11 04:29:56;;;;;;;8.18;5.40;;;;;;;15.60;66.11;96389.06;5107262;28;20059;-78
2022/05/11 04:32:24;;;;;;;15.40;6.55;;;;;;;15.55;65.21;96391.25;5106379;28;20047;-77
2022/05/11 04:34:51;;;;;;;9.10;5.68;;;;;;;15.56;65.37;96392.88;5106885;28;20051;-78
2022/05/11 04:37:17;;;;;;;8.10;5.40;;;;;;;15.57;64.51;96400.75;5106436;28;20059;-77
2022/05/11 04:39:44;;;;;;;7.28;4.70;;;;;;;15.57;64.53;96406.25;5106853;28;20786;-77
2022/05/11 04:42:12;;;;;;;6.53;4.78;;;;;;;15.62;65.22;96402.47;5106843;28;20062;-78
2022/05/11 04:44:40;;;;;;;8.77;4.93;;;;;;;15.67;65.21;96404.19;5105714;28;20051;-78
2022/05/11 04:47:07;;;;;;;8.88;5.15;;;;;;;15.65;64.08;96408.06;5106705;28;20047;-78
2022/05/11 04:49:34;;;;;;;9.05;5.55;;;;;;;15.67;64.44;96415.97;5105349;28;20048;-77
2022/05/11 04:52:07;;;;;;;15.75;7.45;;;;;;;15.70;64.54;96409.75;5107340;28;20078;-79
2022/05/11 04:54:36;;;;;;;10.75;5.90;;;;;;;15.69;64.82;96413.66;5106529;28;20114;-77
2022/05/11 04:57:03;;;;;;;7.78;4.90;;;;;;;15.69;64.81;96408.19;5106034;28;20052;-79
2022/05/11 04:59:29;;;;;;;10.30;5.30;;;;;;;15.75;64.30;96411.47;5106643;28;20044;-77
2022/05/11 05:01:59;;;;;;;13.20;5.05;;;;;;;15.77;63.54;96409.97;5106245;28;20120;-77
2022/05/11 05:04:25;;;;;;;7.85;4.75;;;;;;;15.81;64.06;96410.84;5106085;28;20051;-78
2022/05/11 05:06:52;;;;;;;14.80;5.10;;;;;;;15.84;64.11;96410.16;5105739;28;20056;-78
2022/05/11 05:09:18;;;;;;;17.70;5.03;;;;;;;15.87;63.23;96411.44;5106728;28;20051;-79
2022/05/11 05:11:45;;;;;;;12.18;5.10;;;;;;;15.90;63.55;96417.00;5105579;28;20439;-78
2022/05/11 05:14:12;;;;;;;15.23;5.45;;;;;;;15.94;63.54;96416.31;5105847;28;20062;-77
2022/05/11 05:16:40;;;;;;;10.30;5.10;;;;;;;15.97;63.75;96418.34;5105545;28;20138;-78
2022/05/11 05:19:09;;;;;;;11.98;5.72;;;;;;;16.01;63.46;96419.25;5106157;28;20059;-78
2022/05/11 05:21:36;;;;;;;9.35;5.53;;;;;;;16.04;62.30;96421.28;5105799;28;20099;-77
2022/05/11 05:24:02;;;;;;;10.18;5.00;;;;;;;16.11;62.81;96421.47;5106074;28;20048;-78
2022/05/11 05:26:29;;;;;;;6.65;4.60;;;;;;;16.16;62.48;96421.22;5106777;28;20036;-78
2022/05/11 05:31:39;;;;;;;7.25;4.72;;;;;;;16.30;61.81;96421.59;5106225;28;20095;-78
2022/05/11 05:34:07;;;;;;;10.07;5.05;;;;;;;16.33;61.81;96426.38;5105169;28;20066;-77
2022/05/11 05:36:36;;;;;;;7.53;4.75;;;;;;;16.42;62.21;96429.75;5106216;28;20048;-78
2022/05/11 05:39:04;;;;;;;5.72;4.43;;;;;;;16.47;62.58;96431.44;5105353;28;20502;-77
2022/05/11 05:41:31;;;;;;;6.70;4.72;;;;;;;16.54;63.39;96433.56;5112465;28;20043;-79
2022/05/11 05:43:58;;;;;;;7.78;4.43;;;;;;;16.55;63.64;96433.22;5113640;28;20047;-82
2022/05/11 05:46:25;;;;;;;9.15;4.25;;;;;;;16.61;62.78;96436.50;5111897;28;20054;-81
2022/05/11 05:48:52;;;;;;;8.13;4.13;;;;;;;16.59;60.48;96436.06;5115235;28;20052;-81
2022/05/11 05:51:22;;;;;;;6.05;4.00;;;;;;;16.65;60.48;96438.19;5107132;28;20051;-79
2022/05/11 05:53:48;;;;;;;5.50;3.60;;;;;;;16.74;59.61;96440.78;5107337;28;20613;-78
2022/05/11 05:56:15;;;;;;;6.35;4.18;;;;;;;16.75;60.01;96436.06;5104952;28;20058;-76
2022/05/11 05:58:44;;;;;;;6.15;3.88;;;;;;;16.86;59.40;96443.44;5105651;28;20826;-78
2022/05/11 06:01:11;;;;;;;6.90;3.80;;;;;;;16.75;58.95;96436.88;5104287;28;20087;-79
2022/05/11 06:03:38;;;;;;;6.38;3.78;;;;;;;16.95;59.54;96435.78;5105585;28;20048;-77
2022/05/11 06:06:06;;;;;;;9.48;3.70;;;;;;;17.11;59.82;96432.22;5104923;28;20512;-79
2022/05/11 06:08:34;;;;;;;7.68;3.65;;;;;;;17.19;58.82;96434.00;5105618;28;20039;-77
2022/05/11 06:11:02;;;;;;;5.32;3.47;;;;;;;17.27;58.56;96430.22;5105120;28;20048;-78
2022/05/11 06:13:28;;;;;;;8.80;3.92;;;;;;;17.44;58.31;96435.34;5104600;28;20054;-78
2022/05/11 06:15:56;;;;;;;4.45;3.25;;;;;;;17.55;58.25;96437.53;5104804;28;20075;-78
2022/05/11 06:18:25;;;;;;;8.35;3.63;;;;;;;17.68;57.56;96433.47;5104188;28;20050;-78
2022/05/11 06:20:52;;;;;;;9.48;3.58;;;;;;;17.79;57.04;96434.50;5105628;28;20521;-79
2022/05/11 06:23:19;;;;;;;6.10;3.60;;;;;;;17.82;56.59;96433.78;5105535;28;20044;-80
2022/05/11 06:25:49;;;;;;;8.13;3.47;;;;;;;17.87;56.09;96435.47;5106324;28;20062;-78
2022/05/11 06:28:16;;;;;;;8.55;3.67;;;;;;;17.92;56.50;96435.16;5104959;28;20158;-78
2022/05/11 06:30:43;;;;;;;6.07;3.60;;;;;;;18.05;57.09;96435.78;5123994;28;20052;-85
2022/05/11 06:33:09;;;;;;;5.35;3.70;;;;;;;17.99;56.95;96438.06;5107058;28;20052;-79
2022/05/11 06:35:36;;;;;;;5.22;3.63;;;;;;;18.11;58.32;96440.63;5122692;28;20039;-84
2022/05/11 06:38:03;;;;;;;7.15;3.97;;;;;;;18.23;58.11;96439.69;5124921;28;20626;-82
2022/05/11 06:40:30;;;;;;;8.48;3.63;;;;;;;18.37;57.80;96436.38;5104738;28;20067;-83
2022/05/11 06:42:58;;;;;;;6.05;4.13;;;;;;;18.31;57.74;96438.66;5129628;28;20054;-84
2022/05/11 06:45:25;;;;;;;7.63;4.20;;;;;;;18.45;57.65;96444.44;5177940;22;20044;-83
2022/05/11 06:47:53;;;;;;;7.43;4.07;;;;;;;18.55;57.18;96439.47;5109658;28;20449;-81
2022/05/11 06:50:20;;;;;;;6.50;3.70;;;;;;;18.61;56.30;96435.25;5092167;28;20136;-81
2022/05/11 06:52:46;;;;;;;9.90;4.10;;;;;;;18.71;56.35;96437.41;5094655;22;20494;-85
2022/05/11 07:00:28;;;;;;;12.45;4.20;;;;;;;19.01;56.06;96432.78;5064708;28;20054;-77
2022/05/11 07:02:55;;;;;;;6.25;3.75;;;;;;;19.06;54.47;96434.44;5065806;28;20635;-79
2022/05/11 07:05:22;;;;;;;8.23;3.65;;;;;;;19.19;54.68;96433.03;5066365;28;20059;-77
2022/05/11 07:07:50;;;;;;;4.55;3.50;;;;;;;19.34;55.31;96442.34;5065050;28;20044;-77
2022/05/11 07:10:17;;;;;;;8.00;3.65;;;;;;;19.44;55.13;96438.94;5065651;28;20055;-78
2022/05/11 07:12:46;;;;;;;7.50;4.07;;;;;;;19.51;55.89;96439.03;5067988;28;20048;-78
2022/05/11 07:15:14;;;;;;;8.93;4.18;;;;;;;19.60;53.89;96435.22;5068296;28;20041;-78
2022/05/11 07:17:48;;;;;;;8.18;3.33;;;;;;;19.61;55.12;96434.06;5069295;28;20053;-77
2022/05/11 07:20:18;;;;;;;12.60;4.18;;;;;;;19.77;54.80;96435.44;5068808;28;20052;-77
2022/05/11 07:22:45;;;;;;;9.77;3.80;;;;;;;19.92;54.69;96430.88;5070532;28;20075;-77
2022/05/11 07:25:14;;;;;;;7.43;3.80;;;;;;;20.01;53.49;96434.16;5069910;28;20135;-77
2022/05/11 07:27:42;;;;;;;9.25;3.85;;;;;;;20.07;54.06;96427.13;5073253;28;20079;-78
2022/05/11 07:30:11;;;;;;;7.47;4.13;;;;;;;20.20;53.76;96435.97;5071448;28;20055;-79
2022/05/11 07:32:38;;;;;;;5.32;4.03;;;;;;;20.35;52.66;96436.88;5069676;28;20045;-77
2022/05/11 07:35:07;;;;;;;8.43;3.47;;;;;;;20.42;52.13;96425.13;5069177;28;20044;-78
2022/05/11 07:37:33;;;;;;;6.03;3.67;;;;;;;20.50;52.84;96427.59;5069426;28;20059;-78
2022/05/11 07:40:00;;;;;;;7.93;4.88;;;;;;;20.49;51.42;96426.00;5072187;28;20061;-79
2022/05/11 07:42:27;;;;;;;7.38;3.60;;;;;;;20.57;51.78;96416.59;5076240;28;20045;-78
2022/05/11 07:44:54;;;;;;;7.68;3.90;;;;;;;20.80;52.91;96418.38;5074110;28;20044;-77
2022/05/11 07:47:21;;;;;;;11.20;4.00;;;;;;;20.91;51.14;96413.72;5053931;28;20049;-78
2022/05/11 07:49:47;;;;;;;9.57;4.10;;;;;;;21.16;50.06;96413.09;5050619;28;20053;-77
2022/05/11 07:52:16;;;;;;;5.43;3.67;;;;;;;22.07;49.81;96414.75;5050164;28;20041;-78
2022/05/11 07:54:44;;;;;;;8.57;3.78;;;;;;;23.34;46.17;96412.53;5060820;28;20041;-78
2022/05/11 08:00:11;;;;;;;;;;;;;;;25.10;42.36;96416.03;5045787;28;20442;-77
2022/05/11 08:02:39;;;;;;;7.22;3.90;;;;;;;25.14;39.50;96425.16;5078332;28;20019;-77
2022/05/11 08:05:08;;;;;;;6.22;3.20;;;;;;;25.74;41.08;96420.19;5073194;28;20048;-78
2022/05/11 08:07:40;;;;;;;5.03;3.80;;;;;;;25.95;38.11;96416.41;5075115;28;20045;-78
2022/05/11 08:10:10;;;;;;;4.72;3.42;;;;;;;25.98;39.18;96418.31;5072652;28;20135;-78
2022/05/11 08:12:37;;;;;;;5.68;3.35;;;;;;;26.31;37.68;96418.69;5074548;28;20059;-78
2022/05/11 08:15:06;;;;;;;10.18;3.58;;;;;;;25.94;39.62;96412.78;5067992;28;20055;-78
2022/05/11 08:17:34;;;;;;;5.78;3.50;;;;;;;26.02;37.83;96411.50;5070600;28;20415;-78
2022/05/11 08:20:02;;;;;;;5.07;4.07;;;;;;;25.37;40.31;96412.59;5071898;28;20059;-77
2022/05/11 08:22:30;;;;;;;9.15;3.47;;;;;;;25.21;41.39;96404.78;5072769;28;20052;-77
2022/05/11 08:24:58;;;;;;;5.03;3.80;;;;;;;25.42;41.57;96409.38;5073121;28;20059;-78
2022/05/11 08:27:30;;;;;;;7.25;3.63;;;;;;;25.50;39.96;96419.25;5072643;28;20049;-79
2022/05/11 08:35:28;;;;;;;7.13;3.38;;;;;;;25.72;40.68;96406.66;5078719;28;20565;-77
2022/05/11 08:37:55;;;;;;;6.82;3.60;;;;;;;25.63;39.79;96405.56;5072064;28;20051;-77
2022/05/11 08:40:35;;;;;;;5.75;3.60;;;;;;;25.18;42.85;96406.41;5070163;28;20063;-78
2022/05/11 08:43:05;;;;;;;4.50;3.60;;;;;;;25.37;42.08;96407.03;5071502;28;20075;-77
2022/05/11 08:45:39;;;;;;;4.85;3.60;;;;;;;25.39;39.92;96404.63;5059588;28;20052;-78
2022/05/11 08:48:10;;;;;;;7.35;3.88;;;;;;;25.32;41.55;96401.91;5051719;28;20049;-79
2022/05/11 08:50:39;;;;;;;10.13;3.90;;;;;;;25.33;40.98;96407.09;5049837;28;20060;-77
2022/05/11 08:53:13;;;;;;;6.20;3.80;;;;;;;25.21;39.96;96400.03;5053793;28;20132;-78
2022/05/11 08:55:46;;;;;;;6.57;3.35;;;;;;;25.24;43.17;96403.97;5051346;28;20145;-77
2022/05/11 08:58:23;;;;;;;4.63;3.55;;;;;;;25.16;40.46;96403.25;5050751;28;20056;-78
2022/05/11 09:00:52;;;;;;;6.80;3.65;;;;;;;24.91;41.91;96402.66;5052091;28;20474;-78
2022/05/11 09:03:31;;;;;;;8.80;3.97;;;;;;;24.94;41.10;96408.19;5068695;28;20056;-79
2022/05/11 09:06:00;;;;;;;4.05;3.50;;;;;;;25.01;44.05;96403.78;5070246;28;20131;-78
2022/05/11 09:08:29;;;;;;;9.40;4.30;;;;;;;24.93;40.82;96400.25;5069197;28;20040;-82
2022/05/11 09:10:59;;;;;;;7.18;4.10;;;;;;;24.92;42.31;96398.66;5057650;28;20125;-78
2022/05/11 09:13:27;;;;;;;6.45;3.95;;;;;;;25.15;42.27;96396.09;5049659;28;20492;-78
2022/05/11 09:16:02;;;;;;;4.80;3.83;;;;;;;25.34;41.38;96397.50;5052673;28;20113;-79
2022/05/11 09:18:39;;;;;;;5.78;3.72;;;;;;;25.30;39.65;96401.53;5053665;28;20041;-78
2022/05/11 09:21:19;;;;;;;4.55;3.50;;;;;;;25.35;40.33;96401.09;5052877;28;20045;-79
2022/05/11 09:24:04;;;;;;;16.17;4.22;;;;;;;25.29;41.99;96394.38;5054134;28;20053;-78
2022/05/11 09:26:44;;;;;;;5.45;3.85;;;;;;;25.28;41.63;96393.59;5053380;28;20055;-78
2022/05/11 09:29:21;;;;;;;5.35;3.47;;;;;;;25.16;40.46;96403.25;5057074;28;20057;-77
2022/05/11 09:31:50;;;;;;;5.00;3.85;;;;;;;25.32;41.69;96394.34;5054028;28;20057;-78
2022/05/11 09:34:26;;;;;;;4.60;3.40;;;;;;;25.52;43.00;96397.31;5052459;28;20045;-79
2022/05/11 09:36:57;;;;;;;4.93;3.80;;;;;;;25.71;41.73;96382.75;5055127;28;20122;-78
2022/05/11 09:39:27;;;;;;;5.00;3.63;;;;;;;25.69;38.50;96393.56;5052492;28;20579;-78
2022/05/11 09:42:01;;;;;;;4.53;3.40;;;;;;;25.68;39.28;96394.72;5052828;28;20087;-79
2022/05/11 09:44:41;;;;;;;5.70;3.67;;;;;;;25.54;38.76;96394.91;5055131;28;20451;-78
2022/05/11 09:47:25;;;;;;;5.72;3.65;;;;;;;25.40;38.51;96386.69;5063687;28;20037;-79
2022/05/11 09:49:52;;;;;;;9.50;3.58;;;;;;;25.64;41.09;96382.84;5062335;28;20052;-79
2022/05/11 09:52:30;;;;;;;6.40;3.30;;;;;;;25.64;39.63;96388.44;5058419;28;20045;-79
2022/05/11 09:54:57;;;;;;;4.97;3.53;;;;;;;25.77;39.95;96386.69;5058385;28;20077;-80
2022/05/11 09:57:28;;;;;;;5.53;3.15;;;;;;;25.63;36.80;96375.69;5056396;28;20055;-79
2022/05/11 10:00:16;;;;;;;5.45;2.90;;;;;;;25.76;38.77;96378.75;5058282;28;20045;-79
2022/05/11 10:02:46;;;;;;;4.65;3.50;;;;;;;25.73;40.21;96379.53;5058892;28;20196;-79
2022/05/11 10:05:16;;;;;;;4.82;3.55;;;;;;;25.97;38.19;96375.69;5060137;28;20063;-79
2022/05/11 10:07:48;;;;;;;7.53;3.22;;;;;;;26.05;38.64;96368.03;5068723;28;20045;-78
2022/05/11 10:10:27;;;;;;;4.95;3.10;;;;;;;25.67;38.12;96373.63;5066994;28;20048;-79
2022/05/11 10:12:57;;;;;;;4.97;3.38;;;;;;;25.79;38.40;96368.75;5058677;28;20061;-78
2022/05/11 10:24:11;;;;;;;4.05;3.00;;;;;;;26.03;38.79;96364.84;5050280;28;20071;-78
2022/05/11 10:26:46;;;;;;;5.40;2.92;;;;;;;26.01;36.57;96361.69;5059262;28;20501;-78
2022/05/11 10:29:25;;;;;;;3.58;2.90;;;;;;;26.10;36.00;96350.81;5068058;28;20055;-77
2022/05/11 10:31:59;;;;;;;5.03;2.85;;;;;;;26.13;35.56;96351.97;5069841;28;20431;-79
2022/05/11 10:34:53;;;;;;;4.18;2.92;;;;;;;26.01;37.55;96350.53;5069949;28;20087;-78
2022/05/11 10:37:36;;;;;;;4.18;2.88;;;;;;;26.07;37.10;96348.84;5058353;28;20051;-78
2022/05/11 10:40:17;;;;;;;4.50;3.10;;;;;;;26.11;36.42;96346.81;5073092;28;20041;-78
2022/05/11 10:42:51;;;;;;;6.95;2.92;;;;;;;26.13;34.18;96344.38;5071063;28;20421;-77
2022/05/11 10:45:27;;;;;;;7.13;3.30;;;;;;;26.31;37.43;96335.78;5063587;28;20047;-77
2022/05/11 10:48:18;;;;;;;5.30;3.42;;;;;;;26.45;35.08;96340.34;5051446;28;20537;-77
2022/05/11 10:50:52;;;;;;;5.57;2.97;;;;;;;26.46;36.07;96339.94;5055069;28;20040;-77
2022/05/11 10:53:30;;;;;;;6.18;3.35;;;;;;;26.52;40.59;96334.69;5053927;28;20128;-78
2022/05/11 10:56:11;;;;;;;8.98;3.88;;;;;;;26.60;39.29;96335.34;5055281;28;20064;-78
2022/05/11 10:59:18;;;;;;;6.60;3.40;;;;;;;26.74;36.76;96329.53;5055465;28;20049;-76
2022/05/11 11:01:52;;;;;;;4.95;3.17;;;;;;;26.60;37.08;96330.53;5054551;28;20055;-78
2022/05/11 11:04:44;;;;;;;6.28;3.40;;;;;;;26.51;37.56;96321.91;5054834;28;20056;-79
2022/05/11 11:07:21;;;;;;;6.05;3.30;;;;;;;26.65;37.77;96332.84;5056263;28;20060;-78
2022/05/11 11:10:32;;;;;;;4.43;3.10;;;;;;;26.71;42.56;96317.19;5056043;28;20053;-77
2022/05/11 11:13:24;;;;;;;5.63;3.35;;;;;;;26.83;36.15;96315.00;5027992;28;20055;-78
2022/05/11 11:15:52;;;;;;;3.87;2.90;;;;;;;26.82;37.03;96311.41;5074136;28;20052;-77
2022/05/11 11:18:28;;;;;;;3.30;2.55;;;;;;;26.87;32.59;96315.72;5056119;28;20170;-77
2022/05/11 11:21:01;;;;;;;4.30;2.88;;;;;;;26.79;33.11;96303.91;5066997;28;20049;-77
2022/05/11 11:23:34;;;;;;;4.65;2.53;;;;;;;26.47;32.75;96301.66;5055769;28;20045;-77
2022/05/11 11:26:03;;;;;;;4.35;2.45;;;;;;;26.41;34.90;96300.50;5064870;28;20058;-78
2022/05/11 11:28:34;;;;;;;3.10;2.47;;;;;;;26.53;35.26;96297.94;5072861;28;20155;-78
2022/05/11 11:31:20;;;;;;;4.05;2.40;;;;;;;26.66;34.04;96289.75;5074671;28;20040;-77
2022/05/11 11:34:18;;;;;;;4.10;2.45;;;;;;;26.78;32.38;96291.94;5073237;28;20072;-78
2022/05/11 11:36:45;;;;;;;9.93;2.72;;;;;;;26.89;33.80;96279.78;5074893;28;20136;-77
2022/05/11 11:39:34;;;;;;;6.60;2.65;;;;;;;26.95;31.23;96283.66;5075111;28;20049;-78
2022/05/11 11:42:12;;;;;;;3.63;2.00;;;;;;;27.01;29.04;96284.75;5063776;28;20053;-80
2022/05/11 11:44:46;;;;;;;5.47;1.88;;;;;;;26.96;30.83;96279.66;5058974;28;20049;-77
2022/05/11 11:47:40;;;;;;;6.40;2.35;;;;;;;26.97;32.74;96272.84;5078904;28;20049;-79
2022/05/11 11:50:13;;;;;;;6.35;2.10;;;;;;;27.04;31.42;96275.50;5076796;28;20048;-77
2022/05/11 11:52:45;;;;;;;24.55;3.38;;;;;;;26.89;29.89;96271.41;5077798;28;20051;-79
2022/05/11 11:55:28;;;;;;;4.30;2.22;;;;;;;26.90;30.11;96270.19;5059540;28;20049;-77
2022/05/11 11:58:11;;;;;;;3.83;2.03;;;;;;;26.83;31.20;96264.72;5056755;28;20151;-80
2022/05/11 12:01:01;;;;;;;3.17;1.83;;;;;;;26.45;26.92;96267.75;5055720;28;20104;-77
2022/05/11 12:03:35;;;;;;;2.38;1.60;;;;;;;26.46;28.52;96260.97;5056532;28;20048;-78
2022/05/11 12:17:12;;;;;;;4.10;1.73;;;;;;;26.50;28.51;96253.31;5060138;28;20066;-79
2022/05/11 12:19:41;;;;;;;3.47;2.20;;;;;;;26.46;26.84;96253.38;5074333;28;20056;-79
2022/05/11 12:22:13;;;;;;;3.00;2.00;;;;;;;26.42;28.84;96241.50;5076810;28;20053;-78
2022/05/11 12:24:43;;;;;;;3.17;1.67;;;;;;;26.55;28.02;96250.03;5082578;28;20048;-78
2022/05/11 12:27:15;;;;;;;3.88;1.45;;;;;;;26.51;28.07;96236.13;5077935;28;20128;-77
2022/05/11 12:29:57;;;;;;;4.15;1.98;;;;;;;26.54;27.90;96226.13;5076547;28;20430;-78